Time;durP1;ratioP1;P1;durP2;ratioP2;P2;SDS_P1;SDS_P2;PMS_P1;PMS_P2;Temp;Humidity;BMP_temperature;BMP_pressure;BME280_temperature;BME280_humidity;BME280_pressure;Samples;Min_cycle;Max_cycle;Signal;HPM_P1;HPM_P2
2023/08/16 00:02:01;;;;;;;4.87;3.23;;;;;;;;;;5106074;28;20455;-69
2023/08/16 00:04:27;;;;;;;5.40;4.00;;;;;;;;;;5093174;28;20455;-66
2023/08/16 00:06:54;;;;;;;5.40;4.20;;;;;;;;;;5103347;28;20456;-69
2023/08/16 00:09:21;;;;;;;5.93;4.03;;;;;;;;;;5102076;28;20519;-68
2023/08/16 00:11:47;;;;;;;4.10;3.70;;;;;;;;;;5101745;28;20462;-69
2023/08/16 00:14:14;;;;;;;5.53;4.23;;;;;;;;;;5102387;28;20458;-69
2023/08/16 00:16:42;;;;;;;6.57;4.20;;;;;;;;;;5101335;28;20503;-69
2023/08/16 00:19:09;;;;;;;5.40;3.87;;;;;;;;;;5110885;28;20533;-69
2023/08/16 00:21:36;;;;;;;5.57;4.10;;;;;;;;;;5104175;28;20520;-69
2023/08/16 00:24:04;;;;;;;5.07;3.87;;;;;;;;;;5102063;28;20459;-69
2023/08/16 00:26:30;;;;;;;5.93;4.50;;;;;;;;;;5102139;28;20471;-67
2023/08/16 00:28:57;;;;;;;8.07;4.10;;;;;;;;;;5104747;28;20513;-68
2023/08/16 00:31:23;;;;;;;6.37;4.53;;;;;;;;;;5102073;28;20439;-69
2023/08/16 00:33:51;;;;;;;6.20;4.47;;;;;;;;;;5104514;28;20459;-68
2023/08/16 00:36:17;;;;;;;8.20;4.50;;;;;;;;;;5101484;28;20524;-69
2023/08/16 00:38:44;;;;;;;10.73;5.40;;;;;;;;;;5101785;28;20535;-69
2023/08/16 00:41:10;;;;;;;9.47;5.27;;;;;;;;;;5101281;28;20442;-69
2023/08/16 00:43:37;;;;;;;5.27;4.60;;;;;;;;;;5101205;28;20483;-68
2023/08/16 00:46:05;;;;;;;5.97;4.70;;;;;;;;;;5103176;28;20455;-69
2023/08/16 00:48:33;;;;;;;8.63;4.50;;;;;;;;;;5098109;28;20482;-69
2023/08/16 00:51:00;;;;;;;6.03;4.60;;;;;;;;;;5110142;28;20554;-69
2023/08/16 00:53:28;;;;;;;6.33;4.10;;;;;;;;;;5100649;28;20998;-69
2023/08/16 00:55:54;;;;;;;7.00;4.00;;;;;;;;;;5101723;28;20475;-69
2023/08/16 00:58:20;;;;;;;8.77;4.70;;;;;;;;;;5100973;28;20518;-69
2023/08/16 01:00:47;;;;;;;5.80;4.27;;;;;;;;;;5102138;28;20542;-69
2023/08/16 01:03:14;;;;;;;5.23;4.60;;;;;;;;;;5100453;28;20482;-67
2023/08/16 01:05:40;;;;;;;4.63;4.13;;;;;;;;;;5100455;28;20547;-70
2023/08/16 01:08:08;;;;;;;7.07;4.87;;;;;;;;;;5101038;28;20530;-68
2023/08/16 01:10:38;;;;;;;5.30;4.80;;;;;;;;;;5100057;28;20538;-67
2023/08/16 01:13:08;;;;;;;10.57;4.93;;;;;;;;;;5100168;28;20526;-67
2023/08/16 01:15:38;;;;;;;7.57;4.70;;;;;;;;;;5102389;28;20465;-69
2023/08/16 01:18:04;;;;;;;6.40;4.90;;;;;;;;;;5100782;28;20479;-70
2023/08/16 01:20:32;;;;;;;8.77;4.57;;;;;;;;;;5101032;28;20459;-69
2023/08/16 01:23:04;;;;;;;7.30;4.70;;;;;;;;;;5092033;28;20470;-69
2023/08/16 01:25:35;;;;;;;5.33;4.83;;;;;;;;;;5105060;28;20449;-69
2023/08/16 01:28:03;;;;;;;7.43;5.50;;;;;;;;;;5100021;28;20471;-69
2023/08/16 01:30:30;;;;;;;6.70;5.27;;;;;;;;;;5099926;28;20471;-70
2023/08/16 01:32:56;;;;;;;6.33;5.13;;;;;;;;;;5100784;28;20467;-67
2023/08/16 01:35:23;;;;;;;8.80;5.50;;;;;;;;;;5101491;28;20459;-69
2023/08/16 01:37:49;;;;;;;7.57;5.60;;;;;;;;;;5108943;28;20507;-67
2023/08/16 01:40:18;;;;;;;7.97;6.03;;;;;;;;;;5099616;28;20508;-69
2023/08/16 01:42:45;;;;;;;10.67;5.90;;;;;;;;;;5105759;28;20518;-68
2023/08/16 01:45:13;;;;;;;9.23;6.03;;;;;;;;;;5101685;28;20531;-69
2023/08/16 01:47:40;;;;;;;7.60;5.53;;;;;;;;;;5107648;28;20542;-69
2023/08/16 01:50:07;;;;;;;8.20;6.30;;;;;;;;;;5099886;28;20550;-67
2023/08/16 01:52:33;;;;;;;7.77;5.67;;;;;;;;;;5109246;28;20524;-68
2023/08/16 01:55:00;;;;;;;7.63;5.70;;;;;;;;;;5101127;28;20475;-69
2023/08/16 01:57:26;;;;;;;11.90;6.13;;;;;;;;;;5101692;28;21134;-69
2023/08/16 01:59:53;;;;;;;5.90;5.40;;;;;;;;;;5099808;28;20467;-69
2023/08/16 02:02:20;;;;;;;6.03;5.43;;;;;;;;;;5100092;28;20471;-69
2023/08/16 02:04:47;;;;;;;6.30;5.70;;;;;;;;;;5100010;28;20423;-69
2023/08/16 02:07:13;;;;;;;9.13;5.30;;;;;;;;;;5103213;28;20982;-69
2023/08/16 02:09:40;;;;;;;6.30;5.70;;;;;;;;;;5103509;28;20511;-69
2023/08/16 02:12:07;;;;;;;6.33;5.70;;;;;;;;;;5099539;28;20482;-68
2023/08/16 02:14:33;;;;;;;8.37;6.20;;;;;;;;;;5100088;28;20486;-70
2023/08/16 02:16:59;;;;;;;9.07;6.07;;;;;;;;;;5100389;28;21150;-69
2023/08/16 02:19:27;;;;;;;5.53;4.80;;;;;;;;;;5102573;28;20445;-70
2023/08/16 02:21:54;;;;;;;5.50;5.00;;;;;;;;;;5101523;28;20489;-68
2023/08/16 02:24:20;;;;;;;7.03;5.10;;;;;;;;;;5107020;28;20514;-68
2023/08/16 02:26:46;;;;;;;8.30;5.17;;;;;;;;;;5099630;28;20490;-68
2023/08/16 02:29:13;;;;;;;5.00;4.30;;;;;;;;;;5100044;28;20457;-67
2023/08/16 02:31:39;;;;;;;7.93;4.80;;;;;;;;;;5099845;28;20435;-69
2023/08/16 02:34:06;;;;;;;8.30;5.17;;;;;;;;;;5099942;28;20527;-69
2023/08/16 02:36:34;;;;;;;5.00;4.50;;;;;;;;;;5098982;28;20503;-69
2023/08/16 02:39:00;;;;;;;7.47;5.27;;;;;;;;;;5103507;28;20477;-69
2023/08/16 02:41:27;;;;;;;8.73;5.37;;;;;;;;;;5102619;28;20474;-69
2023/08/16 02:43:53;;;;;;;7.20;4.70;;;;;;;;;;5098884;28;21184;-69
2023/08/16 02:46:19;;;;;;;6.00;5.50;;;;;;;;;;5100009;28;20471;-67
2023/08/16 02:48:46;;;;;;;6.30;5.70;;;;;;;;;;5102616;28;20597;-69
2023/08/16 02:51:12;;;;;;;7.43;5.47;;;;;;;;;;5103770;28;20459;-69
2023/08/16 02:53:40;;;;;;;6.43;5.07;;;;;;;;;;5100522;28;20890;-69
2023/08/16 02:56:07;;;;;;;7.20;4.83;;;;;;;;;;5099878;28;20481;-68
2023/08/16 02:58:33;;;;;;;9.10;5.60;;;;;;;;;;5103070;28;20542;-67
2023/08/16 03:00:59;;;;;;;6.37;5.67;;;;;;;;;;5103818;28;20481;-67
2023/08/16 03:03:26;;;;;;;7.83;6.83;;;;;;;;;;5099627;28;20498;-67
2023/08/16 03:05:52;;;;;;;13.80;9.10;;;;;;;;;;5097946;28;20967;-68
2023/08/16 03:08:19;;;;;;;13.70;7.90;;;;;;;;;;5105004;28;20514;-68
2023/08/16 03:10:46;;;;;;;8.97;7.93;;;;;;;;;;5099163;28;20551;-69
2023/08/16 03:13:13;;;;;;;8.00;7.30;;;;;;;;;;5097950;28;20487;-67
2023/08/16 03:15:39;;;;;;;8.43;7.23;;;;;;;;;;5106730;28;20534;-67
2023/08/16 03:18:06;;;;;;;11.23;8.20;;;;;;;;;;5104338;28;20574;-68
2023/08/16 03:20:32;;;;;;;12.37;8.80;;;;;;;;;;5098245;28;20477;-68
2023/08/16 03:22:59;;;;;;;10.00;9.00;;;;;;;;;;5099795;28;20541;-69
2023/08/16 03:25:25;;;;;;;9.40;8.40;;;;;;;;;;5101886;28;20494;-69
2023/08/16 03:27:53;;;;;;;10.13;9.13;;;;;;;;;;5098493;28;20558;-69
2023/08/16 03:30:19;;;;;;;9.27;8.30;;;;;;;;;;5099763;28;20475;-68
2023/08/16 03:32:46;;;;;;;10.03;9.03;;;;;;;;;;5098528;28;21027;-69
2023/08/16 03:35:12;;;;;;;10.83;9.40;;;;;;;;;;5106563;28;20453;-68
2023/08/16 03:37:38;;;;;;;10.37;9.10;;;;;;;;;;5098058;28;20546;-68
2023/08/16 03:40:06;;;;;;;12.37;9.53;;;;;;;;;;5099216;28;20479;-70
2023/08/16 03:42:32;;;;;;;12.20;9.40;;;;;;;;;;5103915;28;20455;-68
2023/08/16 03:45:00;;;;;;;12.90;9.47;;;;;;;;;;5099504;28;20546;-69
2023/08/16 03:47:26;;;;;;;11.23;9.97;;;;;;;;;;5093196;28;20530;-66
2023/08/16 03:49:53;;;;;;;10.97;9.93;;;;;;;;;;5103018;28;20530;-68
2023/08/16 03:52:19;;;;;;;11.00;9.40;;;;;;;;;;5098667;28;20483;-68
2023/08/16 03:54:45;;;;;;;11.07;9.93;;;;;;;;;;5101298;28;20518;-67
2023/08/16 03:57:12;;;;;;;10.70;9.67;;;;;;;;;;5105672;28;20523;-68
2023/08/16 03:59:38;;;;;;;11.50;10.30;;;;;;;;;;5101966;28;20537;-68
2023/08/16 04:02:06;;;;;;;10.60;9.67;;;;;;;;;;5102240;28;21083;-67
2023/08/16 04:04:32;;;;;;;10.87;9.87;;;;;;;;;;5104181;28;20519;-66
2023/08/16 04:06:59;;;;;;;10.97;9.87;;;;;;;;;;5101724;28;20490;-67
2023/08/16 04:09:26;;;;;;;12.33;10.70;;;;;;;;;;5102542;28;20451;-68
2023/08/16 04:11:52;;;;;;;13.67;12.40;;;;;;;;;;5103045;28;20458;-68
2023/08/16 04:14:19;;;;;;;13.70;12.40;;;;;;;;;;5102554;28;20770;-66
2023/08/16 04:16:45;;;;;;;13.30;10.20;;;;;;;;;;5101784;28;20482;-67
2023/08/16 04:19:13;;;;;;;17.20;12.00;;;;;;;;;;5102845;28;20519;-68
2023/08/16 04:21:39;;;;;;;15.87;11.47;;;;;;;;;;5102192;28;20542;-67
2023/08/16 04:24:06;;;;;;;16.03;11.43;;;;;;;;;;5101392;28;20549;-67
2023/08/16 04:26:33;;;;;;;12.17;10.97;;;;;;;;;;5103040;28;20546;-67
2023/08/16 04:28:59;;;;;;;11.40;10.30;;;;;;;;;;5100935;28;20849;-68
2023/08/16 04:31:26;;;;;;;13.00;10.50;;;;;;;;;;5098892;28;20447;-67
2023/08/16 04:33:52;;;;;;;11.63;10.50;;;;;;;;;;5110509;28;20601;-68
2023/08/16 04:36:20;;;;;;;17.33;11.23;;;;;;;;;;5100417;28;20493;-68
2023/08/16 04:38:46;;;;;;;13.40;11.07;;;;;;;;;;5104984;28;20507;-68
2023/08/16 04:41:13;;;;;;;13.93;10.43;;;;;;;;;;5099855;28;20534;-68
2023/08/16 04:43:39;;;;;;;15.57;11.83;;;;;;;;;;5099550;28;20461;-64
2023/08/16 04:46:05;;;;;;;17.20;13.80;;;;;;;;;;5100167;28;20538;-67
2023/08/16 04:48:32;;;;;;;18.17;14.53;;;;;;;;;;5104412;28;20545;-68
2023/08/16 04:50:58;;;;;;;17.90;16.13;;;;;;;;;;5100227;28;20481;-68
2023/08/16 04:53:26;;;;;;;17.07;15.33;;;;;;;;;;5102042;28;20531;-66
2023/08/16 04:55:52;;;;;;;17.77;15.93;;;;;;;;;;5100037;28;20974;-66
2023/08/16 04:58:19;;;;;;;20.03;16.60;;;;;;;;;;5100047;28;20513;-67
2023/08/16 05:00:45;;;;;;;18.60;16.73;;;;;;;;;;5098715;28;20927;-67
2023/08/16 05:03:11;;;;;;;20.00;16.87;;;;;;;;;;5099716;28;21065;-68
2023/08/16 05:05:38;;;;;;;22.73;17.03;;;;;;;;;;5099968;28;20451;-67
2023/08/16 05:08:04;;;;;;;17.63;15.90;;;;;;;;;;5099436;28;20522;-64
2023/08/16 05:10:32;;;;;;;17.53;15.43;;;;;;;;;;5104629;28;20474;-69
2023/08/16 05:12:58;;;;;;;18.40;16.53;;;;;;;;;;5098528;28;20902;-69
2023/08/16 05:15:26;;;;;;;18.83;16.10;;;;;;;;;;5100316;28;20518;-69
2023/08/16 05:17:52;;;;;;;18.23;16.30;;;;;;;;;;5098359;28;20463;-70
2023/08/16 05:20:18;;;;;;;17.27;15.27;;;;;;;;;;5091599;28;20539;-70
2023/08/16 05:22:45;;;;;;;17.90;15.00;;;;;;;;;;5096516;28;20538;-69
2023/08/16 05:25:11;;;;;;;16.00;14.40;;;;;;;;;;5098245;28;20474;-70
2023/08/16 05:27:39;;;;;;;19.47;13.67;;;;;;;;;;5096533;28;20582;-70
2023/08/16 05:30:06;;;;;;;15.40;12.43;;;;;;;;;;5096306;28;20442;-70
2023/08/16 05:32:32;;;;;;;13.43;11.83;;;;;;;;;;5098087;28;20447;-68
2023/08/16 05:34:59;;;;;;;14.50;10.50;;;;;;;;;;5098477;28;20471;-69
2023/08/16 05:37:25;;;;;;;12.00;10.80;;;;;;;;;;5094328;28;20495;-69
2023/08/16 05:39:52;;;;;;;18.80;11.60;;;;;;;;;;5098471;28;20489;-68
2023/08/16 05:42:18;;;;;;;11.40;10.20;;;;;;;;;;5100790;28;20455;-69
2023/08/16 05:44:46;;;;;;;13.73;10.10;;;;;;;;;;5095328;28;20455;-69
2023/08/16 05:47:12;;;;;;;14.67;10.40;;;;;;;;;;5098311;28;20802;-69
2023/08/16 05:49:39;;;;;;;12.13;9.17;;;;;;;;;;5098819;28;20478;-69
2023/08/16 05:52:05;;;;;;;11.50;7.80;;;;;;;;;;5097851;28;20561;-69
2023/08/16 05:54:31;;;;;;;8.57;7.47;;;;;;;;;;5099216;28;20534;-68
2023/08/16 05:56:58;;;;;;;8.37;6.70;;;;;;;;;;5098799;28;20546;-69
2023/08/16 05:59:24;;;;;;;7.17;6.00;;;;;;;;;;5109992;28;21053;-69
2023/08/16 06:01:52;;;;;;;9.90;6.57;;;;;;;;;;5092474;28;20483;-69
2023/08/16 06:04:18;;;;;;;6.47;5.50;;;;;;;;;;5097019;28;20512;-69
2023/08/16 06:06:45;;;;;;;9.80;5.00;;;;;;;;;;5099342;28;20477;-69
2023/08/16 06:09:11;;;;;;;8.60;5.40;;;;;;;;;;5099007;28;20478;-69
2023/08/16 06:11:37;;;;;;;6.63;4.97;;;;;;;;;;5098612;28;20485;-70
2023/08/16 06:14:04;;;;;;;12.40;5.33;;;;;;;;;;5096578;28;20550;-69
2023/08/16 06:16:31;;;;;;;6.73;4.90;;;;;;;;;;5098333;28;20450;-69
2023/08/16 06:18:59;;;;;;;4.97;4.00;;;;;;;;;;5104392;28;20587;-68
2023/08/16 06:21:26;;;;;;;10.50;4.93;;;;;;;;;;5096960;28;20459;-69
2023/08/16 06:23:55;;;;;;;10.90;3.90;;;;;;;;;;5096858;28;20470;-69
2023/08/16 06:26:22;;;;;;;8.83;4.53;;;;;;;;;;5097441;28;20463;-70
2023/08/16 06:28:48;;;;;;;7.30;4.00;;;;;;;;;;5099329;28;20919;-69
2023/08/16 06:31:15;;;;;;;8.43;3.93;;;;;;;;;;5100514;28;20470;-70
2023/08/16 06:33:42;;;;;;;11.23;3.47;;;;;;;;;;5103081;28;20493;-69
2023/08/16 06:36:10;;;;;;;5.00;3.50;;;;;;;;;;5094208;28;20454;-69
2023/08/16 06:38:36;;;;;;;4.63;3.30;;;;;;;;;;5097341;28;20482;-68
2023/08/16 06:41:03;;;;;;;5.77;3.63;;;;;;;;;;5096037;28;20477;-69
2023/08/16 06:43:29;;;;;;;6.27;3.33;;;;;;;;;;5093944;28;20514;-69
2023/08/16 06:45:56;;;;;;;6.83;4.13;;;;;;;;;;5097517;28;20462;-70
2023/08/16 06:48:23;;;;;;;5.80;3.53;;;;;;;;;;5096976;28;20462;-70
2023/08/16 06:50:49;;;;;;;6.97;3.33;;;;;;;;;;5094120;28;20455;-70
2023/08/16 06:53:17;;;;;;;5.10;3.27;;;;;;;;;;5098263;28;20530;-71
2023/08/16 06:55:44;;;;;;;6.03;3.40;;;;;;;;;;5098197;28;20556;-70
2023/08/16 06:58:10;;;;;;;7.50;3.47;;;;;;;;;;5101076;28;20971;-70
2023/08/16 07:00:37;;;;;;;8.73;3.33;;;;;;;;;;5100109;28;20526;-69
2023/08/16 07:03:03;;;;;;;4.03;3.00;;;;;;;;;;5097622;28;20494;-71
2023/08/16 07:05:30;;;;;;;7.40;3.70;;;;;;;;;;5096635;28;20500;-69
2023/08/16 07:07:56;;;;;;;6.93;3.80;;;;;;;;;;5098799;28;20485;-68
2023/08/16 07:10:24;;;;;;;6.33;3.47;;;;;;;;;;5097273;28;20558;-70
2023/08/16 07:12:50;;;;;;;7.60;3.00;;;;;;;;;;5097207;28;20538;-69
2023/08/16 07:15:17;;;;;;;6.47;3.93;;;;;;;;;;5105123;28;20505;-69
2023/08/16 07:17:44;;;;;;;5.27;3.17;;;;;;;;;;5100236;28;20535;-70
2023/08/16 07:20:10;;;;;;;5.67;3.43;;;;;;;;;;5095360;28;20500;-70
2023/08/16 07:22:38;;;;;;;4.20;3.30;;;;;;;;;;5099511;28;20546;-70
2023/08/16 07:25:05;;;;;;;7.10;3.13;;;;;;;;;;5097987;28;20448;-70
2023/08/16 07:27:33;;;;;;;4.33;3.10;;;;;;;;;;5091237;28;20510;-71
2023/08/16 07:30:00;;;;;;;6.13;3.23;;;;;;;;;;5109388;28;20473;-69
2023/08/16 07:32:26;;;;;;;3.77;2.33;;;;;;;;;;5101450;28;20467;-70
2023/08/16 07:34:52;;;;;;;5.50;2.70;;;;;;;;;;5106938;28;20473;-70
2023/08/16 07:37:19;;;;;;;5.73;3.20;;;;;;;;;;5107200;28;20478;-69
2023/08/16 07:39:45;;;;;;;7.60;3.17;;;;;;;;;;5096916;28;21023;-69
2023/08/16 07:42:12;;;;;;;5.80;3.07;;;;;;;;;;5095402;28;20474;-70
2023/08/16 07:44:39;;;;;;;5.07;3.60;;;;;;;;;;5096560;28;20466;-70
2023/08/16 07:47:06;;;;;;;8.43;3.60;;;;;;;;;;5098642;28;20476;-69
2023/08/16 07:49:33;;;;;;;6.93;3.53;;;;;;;;;;5100594;28;20565;-70
2023/08/16 07:51:59;;;;;;;6.70;3.53;;;;;;;;;;5101075;28;20545;-70
2023/08/16 07:54:26;;;;;;;5.60;2.90;;;;;;;;;;5101767;28;20454;-70
2023/08/16 07:56:53;;;;;;;5.50;2.97;;;;;;;;;;5099258;28;20447;-70
2023/08/16 07:59:19;;;;;;;5.90;2.53;;;;;;;;;;5099565;28;20474;-69
2023/08/16 08:01:47;;;;;;;8.80;3.20;;;;;;;;;;5102670;28;20481;-69
2023/08/16 08:04:14;;;;;;;6.30;3.60;;;;;;;;;;5100723;28;20466;-69
2023/08/16 08:06:41;;;;;;;4.30;2.73;;;;;;;;;;5098735;28;20545;-70
2023/08/16 08:09:07;;;;;;;6.03;3.43;;;;;;;;;;5101105;28;20914;-70
2023/08/16 08:11:34;;;;;;;5.00;3.00;;;;;;;;;;5099709;28;20466;-70
2023/08/16 08:14:00;;;;;;;10.57;3.93;;;;;;;;;;5100213;28;20455;-70
2023/08/16 08:16:27;;;;;;;5.73;3.00;;;;;;;;;;5107929;28;20969;-70
2023/08/16 08:18:54;;;;;;;4.77;3.20;;;;;;;;;;5103836;28;20478;-70
2023/08/16 08:21:21;;;;;;;6.13;3.50;;;;;;;;;;5099580;28;20531;-70
2023/08/16 08:23:47;;;;;;;5.57;3.60;;;;;;;;;;5098124;28;20450;-70
2023/08/16 08:26:14;;;;;;;7.57;3.13;;;;;;;;;;5100801;28;21057;-70
2023/08/16 08:28:42;;;;;;;7.93;3.20;;;;;;;;;;5100304;28;20589;-70
2023/08/16 08:31:08;;;;;;;10.10;3.37;;;;;;;;;;5104860;28;20455;-70
2023/08/16 08:33:35;;;;;;;6.47;3.50;;;;;;;;;;5099674;28;20494;-70
2023/08/16 08:36:03;;;;;;;8.43;3.80;;;;;;;;;;5098423;28;20490;-70
2023/08/16 08:38:30;;;;;;;6.40;3.43;;;;;;;;;;5098006;28;20463;-70
2023/08/16 08:40:57;;;;;;;6.30;2.90;;;;;;;;;;5099144;28;20491;-71
2023/08/16 08:43:26;;;;;;;6.23;3.60;;;;;;;;;;5098429;28;21010;-71
2023/08/16 08:45:52;;;;;;;4.07;3.30;;;;;;;;;;5099151;28;20787;-70
2023/08/16 08:48:20;;;;;;;5.60;2.90;;;;;;;;;;5098856;28;20451;-71
2023/08/16 08:50:47;;;;;;;4.67;3.50;;;;;;;;;;5097746;28;20871;-71
2023/08/16 08:53:15;;;;;;;4.97;3.60;;;;;;;;;;5099640;28;20455;-71
2023/08/16 08:55:44;;;;;;;5.13;3.60;;;;;;;;;;5098143;28;20843;-71
2023/08/16 08:58:10;;;;;;;6.37;3.40;;;;;;;;;;5098174;28;20456;-71
2023/08/16 09:00:37;;;;;;;4.13;3.07;;;;;;;;;;5099592;28;20535;-70
2023/08/16 09:03:07;;;;;;;7.10;3.60;;;;;;;;;;5102449;28;20458;-69
2023/08/16 09:05:34;;;;;;;9.17;4.30;;;;;;;;;;5099587;28;20447;-71
2023/08/16 09:08:00;;;;;;;10.33;3.37;;;;;;;;;;5098580;28;20454;-69
2023/08/16 09:10:28;;;;;;;6.50;3.57;;;;;;;;;;5098830;28;20500;-71
2023/08/16 09:12:55;;;;;;;5.93;3.53;;;;;;;;;;5096725;28;20882;-71
2023/08/16 09:15:21;;;;;;;5.07;3.43;;;;;;;;;;5099420;28;20599;-70
2023/08/16 09:17:50;;;;;;;5.20;3.70;;;;;;;;;;5095134;28;20455;-70
2023/08/16 09:20:17;;;;;;;5.80;3.13;;;;;;;;;;5098437;28;20490;-70
2023/08/16 09:22:43;;;;;;;6.67;3.70;;;;;;;;;;5098982;28;20486;-70
2023/08/16 09:25:10;;;;;;;4.27;3.10;;;;;;;;;;5099364;28;20554;-70
2023/08/16 09:27:40;;;;;;;8.50;3.07;;;;;;;;;;5081284;28;20530;-70
2023/08/16 09:30:12;;;;;;;4.93;2.93;;;;;;;;;;5098934;28;20447;-70
2023/08/16 09:32:38;;;;;;;5.07;3.27;;;;;;;;;;5098643;28;20980;-70
2023/08/16 09:35:05;;;;;;;4.80;2.90;;;;;;;;;;5098080;28;20497;-71
2023/08/16 09:37:32;;;;;;;3.80;2.83;;;;;;;;;;5100242;28;20522;-69
2023/08/16 09:39:58;;;;;;;4.20;3.37;;;;;;;;;;5099119;28;20553;-71
2023/08/16 09:42:32;;;;;;;3.57;2.53;;;;;;;;;;5097896;28;20469;-70
2023/08/16 09:45:00;;;;;;;4.30;3.10;;;;;;;;;;5097840;28;20562;-70
2023/08/16 09:47:28;;;;;;;5.87;2.90;;;;;;;;;;5096963;28;20462;-70
2023/08/16 09:49:55;;;;;;;4.07;2.90;;;;;;;;;;5097348;28;20458;-71
2023/08/16 09:52:21;;;;;;;3.77;2.57;;;;;;;;;;5097559;28;20454;-71
2023/08/16 09:54:48;;;;;;;8.90;3.67;;;;;;;;;;5098656;28;20523;-71
2023/08/16 09:57:16;;;;;;;6.70;3.07;;;;;;;;;;5097842;28;20517;-72
2023/08/16 09:59:42;;;;;;;5.97;3.67;;;;;;;;;;5097401;28;20532;-70
2023/08/16 10:02:12;;;;;;;8.17;3.13;;;;;;;;;;5098514;28;20504;-70
2023/08/16 10:04:39;;;;;;;6.27;3.03;;;;;;;;;;5097638;28;20458;-70
2023/08/16 10:07:06;;;;;;;3.97;2.40;;;;;;;;;;5097577;28;20467;-71
2023/08/16 10:09:33;;;;;;;4.50;2.70;;;;;;;;;;5109129;28;20491;-69
2023/08/16 10:12:01;;;;;;;4.70;3.17;;;;;;;;;;5096947;28;20646;-71
2023/08/16 10:14:28;;;;;;;4.93;3.23;;;;;;;;;;5098705;28;20549;-71
2023/08/16 10:16:56;;;;;;;5.90;3.40;;;;;;;;;;5098396;28;20482;-70
2023/08/16 10:19:24;;;;;;;5.03;3.17;;;;;;;;;;5097999;28;20495;-71
2023/08/16 10:21:52;;;;;;;4.40;2.90;;;;;;;;;;5097029;28;20509;-71
2023/08/16 10:24:19;;;;;;;5.70;3.13;;;;;;;;;;5097435;28;20530;-70
2023/08/16 10:26:47;;;;;;;5.63;3.80;;;;;;;;;;5096921;28;20533;-70
2023/08/16 10:29:15;;;;;;;4.63;3.47;;;;;;;;;;5098377;28;20458;-69
2023/08/16 10:31:43;;;;;;;4.57;3.60;;;;;;;;;;5097337;28;20488;-71
2023/08/16 10:34:13;;;;;;;3.97;3.40;;;;;;;;;;5096452;28;20994;-70
2023/08/16 10:36:41;;;;;;;6.17;3.87;;;;;;;;;;5097389;28;20459;-70
2023/08/16 10:39:08;;;;;;;6.70;3.63;;;;;;;;;;5095628;28;20531;-70
2023/08/16 10:41:41;;;;;;;4.53;3.50;;;;;;;;;;5095976;28;20496;-69
2023/08/16 10:44:08;;;;;;;5.47;3.23;;;;;;;;;;5096998;28;20497;-70
2023/08/16 10:46:35;;;;;;;5.90;3.43;;;;;;;;;;5097229;28;20471;-70
2023/08/16 10:49:03;;;;;;;4.27;3.87;;;;;;;;;;5095742;28;20481;-70
2023/08/16 10:51:30;;;;;;;4.17;3.60;;;;;;;;;;5096896;28;20447;-70
2023/08/16 10:53:58;;;;;;;4.60;4.20;;;;;;;;;;5095240;28;20483;-70
2023/08/16 10:56:24;;;;;;;5.73;4.17;;;;;;;;;;5096923;28;20466;-70
2023/08/16 10:58:52;;;;;;;5.20;4.37;;;;;;;;;;5095231;28;20514;-71
2023/08/16 11:01:18;;;;;;;6.33;5.13;;;;;;;;;;5099080;28;20467;-70
2023/08/16 11:03:47;;;;;;;7.57;3.80;;;;;;;;;;5101040;28;20478;-70
2023/08/16 11:06:13;;;;;;;5.17;4.40;;;;;;;;;;5098920;28;20454;-70
2023/08/16 11:08:41;;;;;;;7.40;5.30;;;;;;;;;;5099367;28;20487;-71
2023/08/16 11:11:09;;;;;;;5.83;5.33;;;;;;;;;;5099766;28;20519;-71
2023/08/16 11:13:36;;;;;;;5.40;4.90;;;;;;;;;;5101034;28;20455;-71
2023/08/16 11:16:02;;;;;;;7.90;4.73;;;;;;;;;;5101644;28;20951;-71
2023/08/16 11:18:29;;;;;;;6.00;3.90;;;;;;;;;;5097468;28;20447;-71
2023/08/16 11:20:59;;;;;;;4.97;3.93;;;;;;;;;;5110590;28;20856;-71
2023/08/16 11:23:30;;;;;;;4.20;3.60;;;;;;;;;;5102029;28;20463;-72
2023/08/16 11:25:59;;;;;;;4.40;4.00;;;;;;;;;;5101101;28;20446;-69
2023/08/16 11:28:26;;;;;;;6.27;4.30;;;;;;;;;;5108820;28;20496;-70
2023/08/16 11:30:56;;;;;;;4.70;3.63;;;;;;;;;;5100888;28;20447;-70
2023/08/16 11:33:22;;;;;;;5.83;4.70;;;;;;;;;;5100216;28;20479;-71
2023/08/16 11:35:48;;;;;;;5.30;4.80;;;;;;;;;;5100545;28;20477;-71
2023/08/16 11:38:15;;;;;;;5.30;4.60;;;;;;;;;;5102215;28;20481;-71
2023/08/16 11:40:46;;;;;;;7.77;5.13;;;;;;;;;;5100311;28;20698;-70
2023/08/16 11:43:13;;;;;;;7.77;4.97;;;;;;;;;;5107677;28;20446;-71
2023/08/16 11:45:41;;;;;;;5.43;4.30;;;;;;;;;;5100480;28;20511;-71
2023/08/16 11:48:07;;;;;;;5.27;3.80;;;;;;;;;;5092767;28;20455;-71
2023/08/16 11:50:34;;;;;;;5.17;3.33;;;;;;;;;;5100664;28;20477;-71
2023/08/16 11:53:01;;;;;;;4.37;3.40;;;;;;;;;;5100520;28;20518;-71
2023/08/16 11:55:29;;;;;;;5.97;4.40;;;;;;;;;;5099881;28;20493;-70
2023/08/16 11:58:01;;;;;;;7.60;5.10;;;;;;;;;;5101048;28;20462;-70
2023/08/16 12:00:29;;;;;;;5.83;4.73;;;;;;;;;;5100966;28;20513;-71
2023/08/16 12:02:57;;;;;;;5.53;4.43;;;;;;;;;;5104364;28;20499;-71
2023/08/16 12:05:25;;;;;;;6.77;3.90;;;;;;;;;;5101299;28;20447;-70
2023/08/16 12:07:52;;;;;;;5.17;3.80;;;;;;;;;;5100686;28;20469;-71
2023/08/16 12:10:23;;;;;;;8.00;4.93;;;;;;;;;;5101030;28;20443;-71
2023/08/16 12:12:52;;;;;;;5.50;4.70;;;;;;;;;;5088915;28;20451;-71
2023/08/16 12:15:18;;;;;;;6.60;4.70;;;;;;;;;;5100782;28;20457;-72
2023/08/16 12:17:45;;;;;;;6.37;5.53;;;;;;;;;;5099774;28;20483;-71
2023/08/16 12:20:13;;;;;;;5.37;4.30;;;;;;;;;;5100342;28;20510;-72
2023/08/16 12:22:39;;;;;;;7.23;4.53;;;;;;;;;;5099847;28;20451;-71
2023/08/16 12:25:06;;;;;;;6.57;5.50;;;;;;;;;;5099836;28;20500;-71
2023/08/16 12:27:33;;;;;;;5.80;4.97;;;;;;;;;;5099818;28;20803;-71
2023/08/16 12:29:59;;;;;;;7.67;5.13;;;;;;;;;;5100503;28;20446;-71
2023/08/16 12:32:26;;;;;;;6.63;4.87;;;;;;;;;;5099969;28;20454;-70
2023/08/16 12:34:52;;;;;;;6.77;4.87;;;;;;;;;;5105734;28;20490;-72
2023/08/16 12:37:20;;;;;;;5.33;4.40;;;;;;;;;;5099194;28;20926;-71
2023/08/16 12:39:46;;;;;;;6.20;5.00;;;;;;;;;;5098620;28;20455;-71
2023/08/16 12:42:13;;;;;;;6.00;5.27;;;;;;;;;;5103048;28;20565;-72
2023/08/16 12:44:39;;;;;;;8.10;4.40;;;;;;;;;;5098836;28;20475;-70
2023/08/16 12:47:06;;;;;;;6.63;5.00;;;;;;;;;;5099337;28;20451;-72
2023/08/16 12:49:32;;;;;;;7.10;5.40;;;;;;;;;;5101318;28;21066;-71
2023/08/16 12:51:58;;;;;;;6.70;4.80;;;;;;;;;;5100638;28;20510;-73
2023/08/16 12:54:26;;;;;;;5.40;4.90;;;;;;;;;;5098401;28;20478;-71
2023/08/16 12:56:53;;;;;;;7.20;4.83;;;;;;;;;;5103251;28;20484;-71
2023/08/16 12:59:19;;;;;;;7.70;4.47;;;;;;;;;;5102651;28;21106;-71
2023/08/16 13:01:47;;;;;;;5.87;4.40;;;;;;;;;;5097559;28;20481;-71
2023/08/16 13:04:14;;;;;;;5.77;3.80;;;;;;;;;;5099258;28;20537;-72
2023/08/16 13:06:40;;;;;;;5.90;4.20;;;;;;;;;;5102284;28;20491;-72
2023/08/16 13:09:07;;;;;;;6.40;4.70;;;;;;;;;;5095568;28;20466;-72
2023/08/16 13:11:35;;;;;;;6.67;4.80;;;;;;;;;;5096490;28;20480;-72
2023/08/16 13:14:02;;;;;;;5.27;4.13;;;;;;;;;;5098451;28;20470;-71
2023/08/16 13:16:29;;;;;;;6.60;4.17;;;;;;;;;;5103612;28;20938;-71
2023/08/16 13:18:55;;;;;;;5.77;3.93;;;;;;;;;;5098980;28;20976;-70
2023/08/16 13:21:22;;;;;;;6.57;4.00;;;;;;;;;;5099197;28;20483;-72
2023/08/16 13:23:52;;;;;;;7.97;4.43;;;;;;;;;;5098337;28;21020;-71
2023/08/16 13:26:19;;;;;;;7.13;4.87;;;;;;;;;;5103039;28;20720;-72
2023/08/16 13:28:46;;;;;;;6.23;3.80;;;;;;;;;;5106769;28;20553;-70
2023/08/16 13:31:13;;;;;;;7.90;3.57;;;;;;;;;;5098410;28;20455;-71
2023/08/16 13:33:39;;;;;;;5.27;4.03;;;;;;;;;;5098246;28;21058;-71
2023/08/16 13:36:06;;;;;;;4.73;3.50;;;;;;;;;;5102749;28;20486;-71
2023/08/16 13:38:32;;;;;;;5.00;3.60;;;;;;;;;;5098720;28;20451;-71
2023/08/16 13:40:59;;;;;;;6.53;4.40;;;;;;;;;;5098194;28;20550;-72
2023/08/16 13:43:26;;;;;;;5.37;3.47;;;;;;;;;;5100803;28;20457;-72
2023/08/16 13:45:54;;;;;;;4.97;3.77;;;;;;;;;;5096987;28;20737;-71
2023/08/16 13:48:20;;;;;;;5.47;3.37;;;;;;;;;;5099642;28;20455;-72
2023/08/16 13:50:46;;;;;;;6.00;4.27;;;;;;;;;;5098609;28;20928;-71
2023/08/16 13:53:13;;;;;;;5.80;3.23;;;;;;;;;;5096535;28;20509;-72
2023/08/16 13:55:39;;;;;;;5.33;3.57;;;;;;;;;;5097183;28;20447;-72
2023/08/16 13:58:06;;;;;;;4.60;3.67;;;;;;;;;;5097795;28;20639;-70
2023/08/16 14:00:32;;;;;;;6.33;4.10;;;;;;;;;;5097480;28;20550;-70
2023/08/16 14:03:00;;;;;;;5.90;4.10;;;;;;;;;;5100477;28;20464;-71
2023/08/16 14:05:26;;;;;;;5.00;3.83;;;;;;;;;;5096819;28;20455;-71
2023/08/16 14:07:53;;;;;;;4.20;3.70;;;;;;;;;;5096734;28;20482;-70
2023/08/16 14:10:21;;;;;;;9.70;4.40;;;;;;;;;;5102604;28;20891;-71
2023/08/16 14:12:47;;;;;;;5.47;4.47;;;;;;;;;;5096916;28;20451;-72
2023/08/16 14:15:13;;;;;;;4.67;4.23;;;;;;;;;;5096793;28;20896;-70
2023/08/16 14:17:40;;;;;;;6.90;4.00;;;;;;;;;;5101154;28;20898;-71
2023/08/16 14:20:09;;;;;;;7.03;4.30;;;;;;;;;;5097870;28;20490;-70
2023/08/16 14:22:35;;;;;;;5.40;4.20;;;;;;;;;;5097025;28;20486;-71
2023/08/16 14:25:02;;;;;;;7.30;4.60;;;;;;;;;;5097844;28;20550;-72
2023/08/16 14:27:28;;;;;;;9.73;4.37;;;;;;;;;;5098178;28;20482;-72
2023/08/16 14:29:55;;;;;;;6.03;3.83;;;;;;;;;;5096421;28;20518;-72
2023/08/16 14:32:22;;;;;;;6.33;4.13;;;;;;;;;;5089684;28;20477;-70
2023/08/16 14:34:49;;;;;;;5.03;3.60;;;;;;;;;;5103633;28;20457;-71
2023/08/16 14:37:16;;;;;;;6.43;4.03;;;;;;;;;;5103619;28;20483;-71